createdAt,value
2022-08-29T00:01:42.632Z,16.80
2022-08-29T00:04:11.342Z,16.78
2022-08-29T00:06:39.780Z,16.85
2022-08-29T00:09:07.963Z,16.85
2022-08-29T00:11:36.226Z,16.89
2022-08-29T00:14:20.908Z,16.94
2022-08-29T00:16:51.970Z,16.90
2022-08-29T00:19:20.437Z,16.92
2022-08-29T00:21:50.133Z,16.93
2022-08-29T00:24:18.323Z,17.02
2022-08-29T00:26:46.734Z,17.03
2022-08-29T00:29:16.392Z,16.91
2022-08-29T00:31:44.533Z,16.81
2022-08-29T00:34:12.413Z,16.73
2022-08-29T00:36:40.489Z,16.69
2022-08-29T00:39:11.803Z,16.75
2022-08-29T00:41:40.204Z,16.77
2022-08-29T00:44:08.453Z,16.67
2022-08-29T00:46:47.760Z,16.52
2022-08-29T00:49:26.971Z,16.36
2022-08-29T00:51:55.574Z,16.31
2022-08-29T00:54:24.823Z,16.36
2022-08-29T00:56:53.908Z,16.26
2022-08-29T00:59:26.133Z,16.21
2022-08-29T01:01:57.277Z,16.24
2022-08-29T01:04:25.394Z,16.32
2022-08-29T01:06:54.913Z,16.47
2022-08-29T01:09:23.824Z,16.37
2022-08-29T01:12:10.118Z,16.31
2022-08-29T01:14:40.048Z,16.22
2022-08-29T01:17:11.105Z,16.17
2022-08-29T01:19:46.583Z,16.23
2022-08-29T01:22:29.404Z,16.17
2022-08-29T01:24:59.862Z,16.08
2022-08-29T01:27:31.318Z,16.13
2022-08-29T01:30:01.337Z,16.11
2022-08-29T01:32:31.193Z,16.06
2022-08-29T01:34:59.213Z,16.09
2022-08-29T01:37:32.705Z,16.07
2022-08-29T01:40:02.244Z,15.96
2022-08-29T01:42:32.955Z,15.98
2022-08-29T01:45:09.775Z,16.08
2022-08-29T01:47:40.051Z,16.08
2022-08-29T01:50:11.607Z,16.04
2022-08-29T01:52:40.040Z,16.00
2022-08-29T01:55:10.016Z,16.08
2022-08-29T01:57:38.860Z,16.12
2022-08-29T02:00:11.329Z,16.17
2022-08-29T02:02:41.064Z,16.10
2022-08-29T02:05:10.270Z,16.01
2022-08-29T02:07:38.101Z,16.02
2022-08-29T02:10:07.418Z,15.91
2022-08-29T02:12:37.090Z,15.86
2022-08-29T02:15:06.217Z,15.77
2022-08-29T02:17:34.362Z,15.75
2022-08-29T02:20:03.569Z,15.72
2022-08-29T02:22:32.351Z,15.66
2022-08-29T02:25:01.303Z,15.59
2022-08-29T02:27:29.584Z,15.53
2022-08-29T02:29:59.427Z,15.52
2022-08-29T02:32:27.404Z,15.54
2022-08-29T02:34:55.400Z,15.57
2022-08-29T02:37:23.548Z,15.62
2022-08-29T02:39:51.664Z,15.58
2022-08-29T02:42:19.862Z,15.56
2022-08-29T02:44:48.010Z,15.51
2022-08-29T02:47:17.893Z,15.43
2022-08-29T02:49:46.067Z,15.48
2022-08-29T02:52:14.455Z,15.47
2022-08-29T02:54:42.289Z,15.41
2022-08-29T02:57:10.486Z,15.38
2022-08-29T02:59:38.624Z,15.24
2022-08-29T03:02:07.781Z,15.31
2022-08-29T03:04:37.493Z,15.28
2022-08-29T03:07:06.464Z,15.32
2022-08-29T03:09:35.739Z,15.18
2022-08-29T03:12:04.373Z,15.27
2022-08-29T03:14:32.897Z,15.27
2022-08-29T03:17:01.914Z,15.32
2022-08-29T03:19:30.079Z,15.34
2022-08-29T03:22:00.488Z,15.31
2022-08-29T03:24:29.468Z,15.18
2022-08-29T03:26:58.820Z,15.19
2022-08-29T03:29:28.894Z,15.13
2022-08-29T03:31:58.735Z,14.95
2022-08-29T03:34:27.387Z,15.02
2022-08-29T03:36:56.147Z,15.12
2022-08-29T03:39:25.691Z,15.19
2022-08-29T03:41:54.163Z,15.20
2022-08-29T03:44:22.878Z,15.11
2022-08-29T03:46:51.429Z,15.19
2022-08-29T03:49:19.611Z,15.09
2022-08-29T03:51:49.990Z,14.95
2022-08-29T03:54:18.353Z,15.00
2022-08-29T03:56:48.020Z,14.89
2022-08-29T03:59:17.444Z,14.78
2022-08-29T04:01:48.071Z,14.79
2022-08-29T04:04:31.933Z,15.00
2022-08-29T04:07:00.039Z,15.14
2022-08-29T04:09:28.259Z,14.94
2022-08-29T04:11:57.976Z,14.88
2022-08-29T04:14:26.807Z,14.88
2022-08-29T04:16:58.748Z,14.90
2022-08-29T04:19:27.061Z,14.86
2022-08-29T04:21:54.877Z,14.83
2022-08-29T04:24:23.025Z,14.71
2022-08-29T04:26:51.289Z,14.74
2022-08-29T04:29:20.908Z,14.79
2022-08-29T04:31:48.747Z,14.75
2022-08-29T04:34:16.756Z,14.68
2022-08-29T04:36:45.329Z,14.64
2022-08-29T04:39:13.505Z,14.73
2022-08-29T04:41:42.177Z,14.70
2022-08-29T04:44:12.047Z,14.74
2022-08-29T04:46:41.667Z,14.71
2022-08-29T04:49:09.914Z,14.58
2022-08-29T04:51:40.610Z,14.70
2022-08-29T04:54:08.526Z,14.75
2022-08-29T04:56:38.103Z,14.87
2022-08-29T04:59:08.772Z,14.96
2022-08-29T05:01:36.824Z,15.01
2022-08-29T05:04:07.347Z,15.21
2022-08-29T05:06:37.347Z,15.23
2022-08-29T05:09:05.857Z,15.25
2022-08-29T05:11:34.448Z,15.32
2022-08-29T05:14:03.140Z,15.41
2022-08-29T05:16:37.247Z,15.72
2022-08-29T05:19:09.313Z,15.72
2022-08-29T05:21:40.153Z,15.87
2022-08-29T05:24:12.880Z,16.03
2022-08-29T05:26:43.232Z,16.10
2022-08-29T05:29:13.338Z,16.19
2022-08-29T05:31:45.389Z,15.81
2022-08-29T05:34:34.901Z,15.93
2022-08-29T05:37:07.560Z,16.07
2022-08-29T05:39:38.520Z,16.03
2022-08-29T05:42:08.409Z,15.91
2022-08-29T05:44:38.946Z,16.16
2022-08-29T05:47:10.374Z,16.42
2022-08-29T05:49:44.307Z,16.65
2022-08-29T05:52:14.926Z,16.88
2022-08-29T05:54:45.767Z,16.99
2022-08-29T05:57:19.118Z,16.85
2022-08-29T05:59:47.199Z,17.11
2022-08-29T06:02:18.008Z,17.37
2022-08-29T06:04:48.317Z,17.50
2022-08-29T06:07:18.422Z,17.51
2022-08-29T06:09:47.760Z,17.55
2022-08-29T06:12:17.119Z,17.59
2022-08-29T06:14:50.415Z,17.34
2022-08-29T06:17:20.301Z,17.59
2022-08-29T06:19:51.719Z,17.61
2022-08-29T06:22:22.535Z,17.83
2022-08-29T06:24:53.458Z,17.72
2022-08-29T06:27:22.518Z,17.97
2022-08-29T06:29:50.810Z,18.14
2022-08-29T06:32:19.217Z,18.24
2022-08-29T06:34:47.327Z,18.36
2022-08-29T06:37:17.208Z,18.74
2022-08-29T06:39:45.946Z,18.81
2022-08-29T06:42:15.375Z,18.74
2022-08-29T06:44:44.613Z,18.97
2022-08-29T06:47:13.538Z,18.75
2022-08-29T06:49:42.255Z,18.17
2022-08-29T06:52:10.300Z,18.72
2022-08-29T06:54:40.040Z,18.78
2022-08-29T06:57:08.623Z,18.83
2022-08-29T06:59:37.098Z,18.95
2022-08-29T07:02:05.850Z,19.40
2022-08-29T07:04:34.287Z,19.58
2022-08-29T07:07:08.315Z,19.92
2022-08-29T07:09:38.988Z,19.74
2022-08-29T07:12:07.467Z,19.77
2022-08-29T07:14:35.801Z,20.35
2022-08-29T07:17:05.132Z,20.65
2022-08-29T07:19:33.887Z,20.35
2022-08-29T07:22:03.680Z,20.27
2022-08-29T07:24:32.661Z,20.16
2022-08-29T07:27:02.455Z,19.58
2022-08-29T07:29:30.803Z,20.51
2022-08-29T07:31:59.016Z,20.65
2022-08-29T07:34:27.456Z,21.10
2022-08-29T07:36:55.485Z,20.88
2022-08-29T07:39:24.268Z,21.81
2022-08-29T07:41:52.848Z,21.95
2022-08-29T07:44:22.244Z,22.47
2022-08-29T07:46:50.502Z,21.64
2022-08-29T07:49:19.237Z,21.51
2022-08-29T07:51:47.910Z,21.96
2022-08-29T07:54:18.950Z,23.32
2022-08-29T07:56:50.768Z,23.45
2022-08-29T07:59:20.164Z,23.49
2022-08-29T08:01:50.002Z,24.26
2022-08-29T08:04:19.190Z,23.90
2022-08-29T08:06:48.311Z,23.81
2022-08-29T08:09:17.755Z,23.68
2022-08-29T08:11:46.671Z,23.87
2022-08-29T08:14:15.325Z,23.77
2022-08-29T08:16:44.843Z,23.59
2022-08-29T08:19:15.910Z,24.51
2022-08-29T08:21:49.861Z,23.41
2022-08-29T08:24:19.834Z,23.88
2022-08-29T08:26:48.314Z,23.85
2022-08-29T08:29:16.696Z,24.64
2022-08-29T08:31:45.010Z,24.75
2022-08-29T08:34:15.712Z,25.70
2022-08-29T08:36:45.121Z,25.61
2022-08-29T08:39:14.227Z,25.45
2022-08-29T08:41:52.097Z,25.20
2022-08-29T08:44:55.643Z,25.34
2022-08-29T08:47:27.672Z,25.80
2022-08-29T08:50:02.023Z,25.94
2022-08-29T08:52:39.356Z,25.09
2022-08-29T08:55:18.069Z,24.88
2022-08-29T08:57:54.071Z,24.64
2022-08-29T09:00:22.695Z,24.33
2022-08-29T09:03:03.711Z,24.45
2022-08-29T09:06:10.384Z,23.91
2022-08-29T09:08:49.746Z,23.67
2022-08-29T09:11:27.121Z,23.63
2022-08-29T09:14:08.583Z,24.23
2022-08-29T09:16:42.064Z,25.08
2022-08-29T09:19:12.385Z,25.24
2022-08-29T09:21:50.037Z,25.43
2022-08-29T09:24:25.900Z,25.33
2022-08-29T09:26:53.688Z,25.86
2022-08-29T09:29:22.140Z,26.56
2022-08-29T09:32:08.221Z,26.56
2022-08-29T09:37:05.125Z,27.72
2022-08-29T09:39:33.890Z,27.76
2022-08-29T09:42:17.469Z,26.96
2022-08-29T09:44:54.498Z,27.29
2022-08-29T09:47:24.879Z,25.86
2022-08-29T09:50:11.031Z,26.75
2022-08-29T09:52:51.552Z,27.36
2022-08-29T09:55:29.792Z,27.55
2022-08-29T09:58:02.863Z,28.83
2022-08-29T10:00:32.647Z,29.81
2022-08-29T10:03:03.072Z,29.03
2022-08-29T10:05:41.558Z,28.28
2022-08-29T10:08:27.039Z,28.80
2022-08-29T10:10:58.102Z,28.60
2022-08-29T10:13:34.286Z,29.86
2022-08-29T10:16:17.842Z,31.94
2022-08-29T10:18:51.091Z,28.17
2022-08-29T10:21:36.971Z,27.68
2022-08-29T10:24:34.861Z,31.01
2022-08-29T10:27:16.450Z,32.88
2022-08-29T10:30:10.689Z,31.92
2022-08-29T10:32:57.459Z,34.27
2022-08-29T10:35:31.038Z,35.91
2022-08-29T10:38:01.437Z,37.32
2022-08-29T10:40:38.245Z,32.58
2022-08-29T10:43:31.754Z,30.48
2022-08-29T10:46:15.662Z,33.77
2022-08-29T10:48:51.686Z,35.18
2022-08-29T10:51:25.141Z,37.40
2022-08-29T10:54:03.509Z,36.52
2022-08-29T10:56:39.609Z,36.42
2022-08-29T10:59:18.382Z,35.94
2022-08-29T11:01:51.463Z,36.11
2022-08-29T11:04:23.692Z,35.27
2022-08-29T11:07:01.105Z,35.79
2022-08-29T11:09:32.393Z,36.76
2022-08-29T11:12:17.373Z,35.00
2022-08-29T11:14:51.691Z,36.83
2022-08-29T11:17:22.540Z,35.16
2022-08-29T11:20:02.019Z,34.88
2022-08-29T11:22:36.349Z,36.15
2022-08-29T11:25:10.564Z,32.56
2022-08-29T11:27:48.776Z,34.68
2022-08-29T11:30:24.990Z,34.35
2022-08-29T11:33:05.534Z,36.77
2022-08-29T11:35:46.455Z,32.42
2022-08-29T11:38:51.315Z,33.91
2022-08-29T11:41:29.120Z,33.64
2022-08-29T11:44:14.225Z,36.84
2022-08-29T11:46:46.722Z,36.78
2022-08-29T11:49:36.316Z,41.44
2022-08-29T11:52:23.658Z,45.18
2022-08-29T11:54:57.301Z,43.85
2022-08-29T11:57:54.856Z,42.68
2022-08-29T12:00:47.665Z,33.72
2022-08-29T12:03:52.302Z,30.97
2022-08-29T12:06:40.504Z,33.98
2022-08-29T12:09:28.002Z,32.72
2022-08-29T12:12:20.733Z,32.99
2022-08-29T12:14:52.635Z,34.82
2022-08-29T12:18:01.522Z,33.43
2022-08-29T12:20:44.151Z,35.80
2022-08-29T12:23:26.809Z,35.01
2022-08-29T12:26:16.196Z,35.72
2022-08-29T12:28:47.929Z,35.48
2022-08-29T12:31:31.459Z,35.70
2022-08-29T12:34:18.215Z,34.50
2022-08-29T12:37:10.657Z,35.39
2022-08-29T12:39:55.656Z,34.03
2022-08-29T12:42:38.037Z,37.26
2022-08-29T12:45:11.523Z,36.97
2022-08-29T12:47:46.229Z,40.00
2022-08-29T12:50:22.307Z,39.61
2022-08-29T12:53:02.239Z,33.21
2022-08-29T12:55:35.534Z,33.33
2022-08-29T12:58:03.457Z,33.27
2022-08-29T13:00:34.051Z,34.65
2022-08-29T13:03:09.581Z,36.92
2022-08-29T13:05:45.562Z,38.98
2022-08-29T13:08:16.371Z,38.58
2022-08-29T13:10:54.959Z,38.04
2022-08-29T13:13:25.061Z,37.61
2022-08-29T13:15:54.724Z,38.94
2022-08-29T13:18:23.527Z,41.18
2022-08-29T13:21:07.335Z,40.70
2022-08-29T13:23:38.281Z,39.51
2022-08-29T13:26:19.632Z,38.12
2022-08-29T13:28:50.840Z,34.18
2022-08-29T13:31:37.775Z,34.13
2022-08-29T13:34:19.786Z,39.61
2022-08-29T13:37:16.485Z,41.09
2022-08-29T13:39:48.989Z,41.81
2022-08-29T13:42:23.461Z,39.02
2022-08-29T13:45:21.055Z,40.00
2022-08-29T13:47:58.916Z,40.97
2022-08-29T13:50:27.912Z,41.97
2022-08-29T13:52:59.204Z,42.28
2022-08-29T13:55:27.698Z,36.90
2022-08-29T13:57:56.483Z,34.92
2022-08-29T14:00:32.325Z,34.77
2022-08-29T14:03:06.625Z,35.90
2022-08-29T14:05:36.206Z,39.45
2022-08-29T14:08:07.052Z,41.67
2022-08-29T14:10:35.466Z,40.03
2022-08-29T14:13:04.314Z,39.86
2022-08-29T14:15:33.400Z,43.24
2022-08-29T14:18:01.816Z,43.68
2022-08-29T14:20:29.756Z,43.45
2022-08-29T14:22:57.863Z,42.53
2022-08-29T14:25:27.929Z,42.03
2022-08-29T14:27:55.846Z,36.23
2022-08-29T14:30:24.884Z,35.23
2022-08-29T14:32:53.140Z,36.35
2022-08-29T14:35:26.384Z,38.12
2022-08-29T14:38:00.223Z,36.09
2022-08-29T14:40:32.409Z,35.97
2022-08-29T14:43:01.802Z,37.31
2022-08-29T14:45:32.173Z,36.28
2022-08-29T14:48:00.510Z,35.56
2022-08-29T14:50:28.827Z,36.28
2022-08-29T14:52:57.087Z,36.70
2022-08-29T14:55:25.281Z,36.42
2022-08-29T14:57:54.775Z,37.95
2022-08-29T15:00:28.413Z,37.20
2022-08-29T15:02:56.933Z,34.12
2022-08-29T15:05:25.491Z,37.76
2022-08-29T15:07:53.754Z,38.83
2022-08-29T15:10:23.770Z,37.00
2022-08-29T15:12:52.166Z,35.77
2022-08-29T15:15:29.292Z,37.92
2022-08-29T15:17:57.723Z,39.51
2022-08-29T15:20:46.193Z,37.44
2022-08-29T15:23:14.282Z,36.64
2022-08-29T15:25:45.080Z,38.04
2022-08-29T15:28:20.088Z,40.02
2022-08-29T15:30:49.753Z,41.87
2022-08-29T15:33:18.116Z,36.79
2022-08-29T15:35:46.367Z,32.67
2022-08-29T15:38:14.468Z,33.58
2022-08-29T15:40:43.429Z,35.39
2022-08-29T15:43:11.491Z,36.00
2022-08-29T15:45:39.408Z,36.15
2022-08-29T15:48:11.442Z,32.29
2022-08-29T15:50:39.762Z,32.50
2022-08-29T15:53:07.694Z,33.86
2022-08-29T15:55:35.682Z,33.39
2022-08-29T15:58:04.001Z,31.29
2022-08-29T16:00:32.225Z,32.51
2022-08-29T16:03:02.897Z,31.73
2022-08-29T16:05:34.488Z,34.63
2022-08-29T16:08:03.650Z,36.19
2022-08-29T16:10:32.459Z,35.79
2022-08-29T16:13:01.234Z,33.96
2022-08-29T16:15:31.696Z,33.12
2022-08-29T16:18:00.586Z,33.96
2022-08-29T16:20:29.134Z,34.08
2022-08-29T16:22:59.746Z,32.89
2022-08-29T16:25:28.996Z,31.89
2022-08-29T16:27:57.272Z,30.84
2022-08-29T16:30:25.816Z,31.63
2022-08-29T16:32:56.240Z,31.77
2022-08-29T16:35:26.177Z,31.25
2022-08-29T16:38:02.895Z,30.86
2022-08-29T16:40:33.586Z,30.78
2022-08-29T16:43:02.808Z,30.30
2022-08-29T16:45:31.466Z,29.25
2022-08-29T16:48:00.065Z,29.67
2022-08-29T16:50:29.434Z,30.22
2022-08-29T16:52:57.742Z,29.62
2022-08-29T16:55:26.261Z,29.79
2022-08-29T16:58:13.277Z,29.70
2022-08-29T17:00:43.067Z,29.28
2022-08-29T17:03:11.574Z,28.66
2022-08-29T17:05:40.003Z,29.33
2022-08-29T17:08:07.111Z,29.30
2022-08-29T17:10:33.982Z,29.28
2022-08-29T17:13:02.380Z,29.34
2022-08-29T17:15:31.436Z,29.58
2022-08-29T17:18:00.395Z,29.72
2022-08-29T17:20:28.887Z,29.39
2022-08-29T17:22:57.397Z,28.82
2022-08-29T17:25:25.665Z,28.43
2022-08-29T17:28:16.350Z,28.44
2022-08-29T17:30:44.912Z,28.47
2022-08-29T17:33:13.567Z,27.84
2022-08-29T17:35:42.037Z,27.54
2022-08-29T17:38:11.024Z,27.12
2022-08-29T17:40:41.138Z,27.33
2022-08-29T17:43:11.329Z,27.04
2022-08-29T17:45:40.705Z,26.96
2022-08-29T17:48:10.575Z,26.30
2022-08-29T17:50:41.346Z,26.07
2022-08-29T17:53:09.410Z,25.82
2022-08-29T17:55:40.156Z,25.69
2022-08-29T17:58:10.089Z,25.54
2022-08-29T18:00:40.587Z,25.34
2022-08-29T18:03:10.122Z,25.09
2022-08-29T18:05:38.094Z,25.08
2022-08-29T18:08:07.219Z,25.02
2022-08-29T18:10:37.406Z,25.06
2022-08-29T18:13:05.947Z,24.95
2022-08-29T18:15:35.510Z,24.81
2022-08-29T18:18:04.344Z,24.68
2022-08-29T18:20:33.972Z,24.53
2022-08-29T18:23:01.909Z,24.43
2022-08-29T18:25:30.109Z,24.12
2022-08-29T18:27:58.050Z,23.94
2022-08-29T18:30:26.679Z,23.90
2022-08-29T18:32:55.573Z,23.85
2022-08-29T18:35:23.818Z,23.84
2022-08-29T18:37:53.127Z,23.60
2022-08-29T18:40:21.086Z,23.42
2022-08-29T18:42:49.281Z,23.35
2022-08-29T18:45:17.452Z,23.30
2022-08-29T18:47:46.390Z,23.23
2022-08-29T18:50:33.493Z,23.28
2022-08-29T18:53:04.056Z,23.24
2022-08-29T18:55:32.917Z,23.27
2022-08-29T18:58:01.170Z,23.36
2022-08-29T19:00:29.823Z,23.21
2022-08-29T19:02:59.527Z,22.98
2022-08-29T19:05:30.153Z,22.82
2022-08-29T19:07:59.755Z,22.72
2022-08-29T19:10:30.564Z,22.64
2022-08-29T19:13:00.279Z,22.70
2022-08-29T19:15:29.887Z,22.57
2022-08-29T19:17:57.856Z,22.39
2022-08-29T19:20:45.476Z,22.34
2022-08-29T19:23:14.413Z,22.51
2022-08-29T19:25:45.208Z,22.59
2022-08-29T19:28:13.528Z,22.59
2022-08-29T19:30:44.496Z,22.51
2022-08-29T19:33:15.339Z,22.40
2022-08-29T19:35:44.488Z,22.37
2022-08-29T19:38:16.185Z,22.34
2022-08-29T19:40:52.542Z,22.24
2022-08-29T19:43:21.137Z,22.16
2022-08-29T19:45:50.030Z,22.10
2022-08-29T19:48:20.101Z,22.07
2022-08-29T19:50:50.028Z,22.03
2022-08-29T19:53:26.046Z,22.02
2022-08-29T19:55:57.455Z,21.89
2022-08-29T19:58:30.965Z,21.67
2022-08-29T20:01:03.285Z,21.58
2022-08-29T20:03:32.396Z,21.52
2022-08-29T20:06:05.777Z,21.52
2022-08-29T20:08:35.055Z,21.62
2022-08-29T20:11:08.650Z,21.59
2022-08-29T20:13:38.417Z,21.50
2022-08-29T20:16:12.239Z,21.50
2022-08-29T20:18:41.038Z,21.48
2022-08-29T20:21:09.519Z,21.43
2022-08-29T20:23:41.395Z,21.36
2022-08-29T20:26:20.702Z,21.20
2022-08-29T20:28:51.704Z,21.02
2022-08-29T20:31:20.561Z,21.00
2022-08-29T20:33:49.270Z,21.04
2022-08-29T20:36:38.610Z,21.07
2022-08-29T20:39:09.119Z,21.10
2022-08-29T20:41:39.701Z,21.05
2022-08-29T20:44:10.200Z,20.88
2022-08-29T20:46:41.278Z,20.70
2022-08-29T20:49:12.461Z,20.66
2022-08-29T20:51:44.656Z,20.57
2022-08-29T20:54:14.405Z,20.50
2022-08-29T20:56:44.800Z,20.52
2022-08-29T20:59:13.392Z,20.51
2022-08-29T21:01:43.361Z,20.43
2022-08-29T21:04:31.426Z,20.51
2022-08-29T21:07:02.863Z,20.44
2022-08-29T21:09:31.717Z,20.40
2022-08-29T21:12:01.622Z,20.40
2022-08-29T21:14:31.802Z,20.43
2022-08-29T21:17:01.812Z,20.37
2022-08-29T21:19:31.921Z,20.36
2022-08-29T21:22:01.821Z,20.25
2022-08-29T21:24:30.530Z,20.23
2022-08-29T21:26:59.452Z,20.16
2022-08-29T21:29:29.954Z,19.98
2022-08-29T21:31:58.559Z,19.88
2022-08-29T21:34:27.166Z,19.85
2022-08-29T21:36:55.875Z,19.85
2022-08-29T21:39:28.043Z,19.85
2022-08-29T21:42:01.412Z,19.85
2022-08-29T21:44:32.856Z,19.78
2022-08-29T21:47:02.103Z,19.74
2022-08-29T21:49:31.324Z,19.67
2022-08-29T21:51:59.611Z,19.17
2022-08-29T21:54:28.111Z,18.84
2022-08-29T21:56:56.713Z,18.81
2022-08-29T21:59:28.428Z,18.69
2022-08-29T22:01:58.324Z,18.61
2022-08-29T22:04:28.137Z,18.55
2022-08-29T22:06:58.532Z,18.39
2022-08-29T22:09:29.152Z,18.25
2022-08-29T22:11:59.884Z,18.25
2022-08-29T22:14:42.617Z,18.24
2022-08-29T22:17:11.919Z,18.20
2022-08-29T22:19:40.746Z,18.20
2022-08-29T22:22:09.629Z,18.21
2022-08-29T22:24:39.579Z,18.21
2022-08-29T22:27:08.000Z,18.16
2022-08-29T22:29:37.518Z,18.32
2022-08-29T22:32:06.415Z,18.60
2022-08-29T22:34:35.832Z,18.68
2022-08-29T22:37:04.307Z,18.74
2022-08-29T22:39:32.542Z,18.60
2022-08-29T22:42:01.176Z,18.40
2022-08-29T22:45:00.026Z,18.15
2022-08-29T22:47:17.950Z,18.12
2022-08-29T22:49:47.613Z,17.99
2022-08-29T22:52:15.962Z,17.84
2022-08-29T22:54:44.242Z,17.66
2022-08-29T22:57:15.351Z,17.66
2022-08-29T22:59:44.450Z,17.63
2022-08-29T23:02:13.549Z,17.58
2022-08-29T23:04:42.112Z,17.62
2022-08-29T23:07:12.238Z,17.59
2022-08-29T23:09:41.491Z,17.60
2022-08-29T23:12:10.484Z,17.61
2022-08-29T23:14:39.645Z,17.74
2022-08-29T23:17:09.716Z,17.88
2022-08-29T23:19:38.490Z,18.02
2022-08-29T23:22:12.596Z,17.99
2022-08-29T23:24:57.811Z,18.17
2022-08-29T23:27:28.850Z,18.17
2022-08-29T23:29:57.600Z,17.99
2022-08-29T23:32:25.742Z,17.86
2022-08-29T23:34:53.988Z,17.73
2022-08-29T23:37:23.371Z,17.53
2022-08-29T23:39:52.506Z,17.49
2022-08-29T23:42:21.188Z,17.59
2022-08-29T23:44:49.274Z,17.52
2022-08-29T23:47:17.837Z,17.54
2022-08-29T23:49:46.529Z,17.59
2022-08-29T23:52:14.690Z,17.57
2022-08-29T23:54:43.962Z,17.68
2022-08-29T23:57:12.326Z,17.63
2022-08-29T23:59:58.385Z,17.62
